sensor_id;sensor_type;location;lat;lon;timestamp;temperature;humidity
68385;DHT22;55336;43.062;25.626;2023-07-13T00:00:24;20.40;99.90
68385;DHT22;55336;43.062;25.626;2023-07-13T00:02:50;20.30;99.90
68385;DHT22;55336;43.062;25.626;2023-07-13T00:05:20;20.40;99.90
68385;DHT22;55336;43.062;25.626;2023-07-13T00:07:46;20.40;99.90
68385;DHT22;55336;43.062;25.626;2023-07-13T00:10:12;20.20;99.90
68385;DHT22;55336;43.062;25.626;2023-07-13T00:12:38;20.20;99.90
68385;DHT22;55336;43.062;25.626;2023-07-13T00:15:09;20.20;99.90
68385;DHT22;55336;43.062;25.626;2023-07-13T00:17:36;20.20;99.90
68385;DHT22;55336;43.062;25.626;2023-07-13T00:20:04;20.10;99.90
68385;DHT22;55336;43.062;25.626;2023-07-13T00:22:30;20.10;99.90
68385;DHT22;55336;43.062;25.626;2023-07-13T00:24:56;20.10;99.90
68385;DHT22;55336;43.062;25.626;2023-07-13T00:27:22;20.00;99.90
68385;DHT22;55336;43.062;25.626;2023-07-13T00:29:48;20.00;99.90
68385;DHT22;55336;43.062;25.626;2023-07-13T00:32:14;20.00;99.90
68385;DHT22;55336;43.062;25.626;2023-07-13T00:34:40;20.00;99.90
68385;DHT22;55336;43.062;25.626;2023-07-13T00:37:06;20.00;99.90
68385;DHT22;55336;43.062;25.626;2023-07-13T00:39:35;20.00;99.90
68385;DHT22;55336;43.062;25.626;2023-07-13T00:42:02;20.00;99.90
68385;DHT22;55336;43.062;25.626;2023-07-13T00:44:28;20.00;99.90
68385;DHT22;55336;43.062;25.626;2023-07-13T00:46:54;19.90;99.90
68385;DHT22;55336;43.062;25.626;2023-07-13T00:49:22;19.90;99.90
68385;DHT22;55336;43.062;25.626;2023-07-13T00:51:49;19.90;99.90
68385;DHT22;55336;43.062;25.626;2023-07-13T00:54:21;19.90;99.90
68385;DHT22;55336;43.062;25.626;2023-07-13T00:56:51;19.90;99.90
68385;DHT22;55336;43.062;25.626;2023-07-13T00:59:18;19.80;99.90
68385;DHT22;55336;43.062;25.626;2023-07-13T01:01:46;19.80;99.90
68385;DHT22;55336;43.062;25.626;2023-07-13T01:04:12;19.80;99.90
68385;DHT22;55336;43.062;25.626;2023-07-13T01:06:39;19.80;99.90
68385;DHT22;55336;43.062;25.626;2023-07-13T01:09:07;19.80;99.90
68385;DHT22;55336;43.062;25.626;2023-07-13T01:11:34;19.80;99.90
68385;DHT22;55336;43.062;25.626;2023-07-13T01:14:01;19.70;99.90
68385;DHT22;55336;43.062;25.626;2023-07-13T01:16:30;19.70;99.90
68385;DHT22;55336;43.062;25.626;2023-07-13T01:18:56;19.70;99.90
68385;DHT22;55336;43.062;25.626;2023-07-13T01:21:28;19.70;99.90
68385;DHT22;55336;43.062;25.626;2023-07-13T01:23:55;19.70;99.90
68385;DHT22;55336;43.062;25.626;2023-07-13T01:26:21;19.70;99.90
68385;DHT22;55336;43.062;25.626;2023-07-13T01:28:47;19.60;99.90
68385;DHT22;55336;43.062;25.626;2023-07-13T01:31:13;19.60;99.90
68385;DHT22;55336;43.062;25.626;2023-07-13T01:33:39;19.60;99.90
68385;DHT22;55336;43.062;25.626;2023-07-13T01:36:09;19.70;99.90
68385;DHT22;55336;43.062;25.626;2023-07-13T01:38:36;19.70;99.90
68385;DHT22;55336;43.062;25.626;2023-07-13T01:41:02;19.60;99.90
68385;DHT22;55336;43.062;25.626;2023-07-13T01:43:29;19.70;99.90
68385;DHT22;55336;43.062;25.626;2023-07-13T01:45:55;19.60;99.90
68385;DHT22;55336;43.062;25.626;2023-07-13T01:48:20;19.60;99.90
68385;DHT22;55336;43.062;25.626;2023-07-13T01:50:47;19.60;99.90
68385;DHT22;55336;43.062;25.626;2023-07-13T01:53:13;19.60;99.90
68385;DHT22;55336;43.062;25.626;2023-07-13T01:55:39;19.50;99.90
68385;DHT22;55336;43.062;25.626;2023-07-13T01:58:05;19.50;99.90
68385;DHT22;55336;43.062;25.626;2023-07-13T02:00:32;19.50;99.90
68385;DHT22;55336;43.062;25.626;2023-07-13T02:02:58;19.50;99.90
68385;DHT22;55336;43.062;25.626;2023-07-13T02:05:24;19.50;99.90
68385;DHT22;55336;43.062;25.626;2023-07-13T02:07:50;19.50;99.90
68385;DHT22;55336;43.062;25.626;2023-07-13T02:10:16;19.50;99.90
68385;DHT22;55336;43.062;25.626;2023-07-13T02:12:42;19.50;99.90
68385;DHT22;55336;43.062;25.626;2023-07-13T02:15:09;19.50;99.90
68385;DHT22;55336;43.062;25.626;2023-07-13T02:17:35;19.50;99.90
68385;DHT22;55336;43.062;25.626;2023-07-13T02:20:03;19.40;99.90
68385;DHT22;55336;43.062;25.626;2023-07-13T02:22:28;19.40;99.90
68385;DHT22;55336;43.062;25.626;2023-07-13T02:24:54;19.40;99.90
68385;DHT22;55336;43.062;25.626;2023-07-13T02:27:20;19.40;99.90
68385;DHT22;55336;43.062;25.626;2023-07-13T02:29:45;19.30;99.90
68385;DHT22;55336;43.062;25.626;2023-07-13T02:32:11;19.30;99.90
68385;DHT22;55336;43.062;25.626;2023-07-13T02:34:40;19.30;99.90
68385;DHT22;55336;43.062;25.626;2023-07-13T02:37:07;19.30;99.90
68385;DHT22;55336;43.062;25.626;2023-07-13T02:39:32;19.30;99.90
68385;DHT22;55336;43.062;25.626;2023-07-13T02:41:59;19.30;99.90
68385;DHT22;55336;43.062;25.626;2023-07-13T02:44:26;19.30;99.90
68385;DHT22;55336;43.062;25.626;2023-07-13T02:46:52;19.30;99.90
68385;DHT22;55336;43.062;25.626;2023-07-13T02:49:18;19.30;99.90
68385;DHT22;55336;43.062;25.626;2023-07-13T02:51:43;19.20;99.90
68385;DHT22;55336;43.062;25.626;2023-07-13T02:54:09;19.20;99.90
68385;DHT22;55336;43.062;25.626;2023-07-13T02:56:36;19.20;99.90
68385;DHT22;55336;43.062;25.626;2023-07-13T02:59:04;19.20;99.90
68385;DHT22;55336;43.062;25.626;2023-07-13T03:01:30;19.30;99.90
68385;DHT22;55336;43.062;25.626;2023-07-13T03:04:00;19.30;99.90
68385;DHT22;55336;43.062;25.626;2023-07-13T03:06:26;19.40;99.90
68385;DHT22;55336;43.062;25.626;2023-07-13T03:08:56;19.50;99.90
68385;DHT22;55336;43.062;25.626;2023-07-13T03:11:21;19.60;99.90
68385;DHT22;55336;43.062;25.626;2023-07-13T03:13:47;19.60;99.90
68385;DHT22;55336;43.062;25.626;2023-07-13T03:16:14;19.60;99.90
68385;DHT22;55336;43.062;25.626;2023-07-13T03:18:41;19.70;99.90
68385;DHT22;55336;43.062;25.626;2023-07-13T03:21:07;19.70;99.90
68385;DHT22;55336;43.062;25.626;2023-07-13T03:23:33;19.80;99.90
68385;DHT22;55336;43.062;25.626;2023-07-13T03:26:18;19.80;99.90
68385;DHT22;55336;43.062;25.626;2023-07-13T03:28:44;19.80;99.90
68385;DHT22;55336;43.062;25.626;2023-07-13T03:31:11;19.80;99.90
68385;DHT22;55336;43.062;25.626;2023-07-13T03:33:38;19.90;99.90
68385;DHT22;55336;43.062;25.626;2023-07-13T03:36:05;20.00;99.90
68385;DHT22;55336;43.062;25.626;2023-07-13T03:38:31;20.00;99.90
68385;DHT22;55336;43.062;25.626;2023-07-13T03:40:57;20.00;99.90
68385;DHT22;55336;43.062;25.626;2023-07-13T03:43:23;20.10;99.90
68385;DHT22;55336;43.062;25.626;2023-07-13T03:45:49;20.10;99.90
68385;DHT22;55336;43.062;25.626;2023-07-13T03:48:14;20.10;99.90
68385;DHT22;55336;43.062;25.626;2023-07-13T03:50:40;20.10;99.90
68385;DHT22;55336;43.062;25.626;2023-07-13T03:53:06;20.20;99.90
68385;DHT22;55336;43.062;25.626;2023-07-13T03:55:32;20.30;99.90
68385;DHT22;55336;43.062;25.626;2023-07-13T03:58:22;20.40;99.90
68385;DHT22;55336;43.062;25.626;2023-07-13T04:00:44;20.40;99.90
68385;DHT22;55336;43.062;25.626;2023-07-13T04:03:09;20.50;99.90
68385;DHT22;55336;43.062;25.626;2023-07-13T04:05:35;20.60;99.90
68385;DHT22;55336;43.062;25.626;2023-07-13T04:08:01;20.70;99.90
68385;DHT22;55336;43.062;25.626;2023-07-13T04:10:27;20.80;99.90
68385;DHT22;55336;43.062;25.626;2023-07-13T04:12:55;20.90;99.90
68385;DHT22;55336;43.062;25.626;2023-07-13T04:15:21;21.00;99.90
68385;DHT22;55336;43.062;25.626;2023-07-13T04:17:46;21.10;99.90
68385;DHT22;55336;43.062;25.626;2023-07-13T04:20:12;21.10;99.90
68385;DHT22;55336;43.062;25.626;2023-07-13T04:22:38;21.20;99.90
68385;DHT22;55336;43.062;25.626;2023-07-13T04:25:03;21.30;99.90
68385;DHT22;55336;43.062;25.626;2023-07-13T04:27:30;22.00;99.90
68385;DHT22;55336;43.062;25.626;2023-07-13T04:29:56;21.60;99.90
68385;DHT22;55336;43.062;25.626;2023-07-13T04:32:22;21.80;99.90
68385;DHT22;55336;43.062;25.626;2023-07-13T04:34:47;22.00;99.90
68385;DHT22;55336;43.062;25.626;2023-07-13T04:37:19;22.20;99.90
68385;DHT22;55336;43.062;25.626;2023-07-13T04:39:45;22.30;99.90
68385;DHT22;55336;43.062;25.626;2023-07-13T04:42:11;22.30;99.90
68385;DHT22;55336;43.062;25.626;2023-07-13T04:44:37;22.60;99.90
68385;DHT22;55336;43.062;25.626;2023-07-13T04:47:02;22.90;99.90
68385;DHT22;55336;43.062;25.626;2023-07-13T04:49:29;23.10;99.90
68385;DHT22;55336;43.062;25.626;2023-07-13T04:51:54;23.30;99.90
68385;DHT22;55336;43.062;25.626;2023-07-13T04:54:20;23.60;99.90
68385;DHT22;55336;43.062;25.626;2023-07-13T04:56:47;23.90;99.90
68385;DHT22;55336;43.062;25.626;2023-07-13T04:59:13;24.00;99.90
68385;DHT22;55336;43.062;25.626;2023-07-13T05:01:38;23.90;99.90
68385;DHT22;55336;43.062;25.626;2023-07-13T05:04:04;24.20;99.90
68385;DHT22;55336;43.062;25.626;2023-07-13T05:06:30;24.70;99.90
68385;DHT22;55336;43.062;25.626;2023-07-13T05:08:57;25.10;99.90
68385;DHT22;55336;43.062;25.626;2023-07-13T05:11:23;25.60;99.90
68385;DHT22;55336;43.062;25.626;2023-07-13T05:13:49;25.70;99.90
68385;DHT22;55336;43.062;25.626;2023-07-13T05:16:15;25.80;99.90
68385;DHT22;55336;43.062;25.626;2023-07-13T05:18:42;25.90;99.90
68385;DHT22;55336;43.062;25.626;2023-07-13T05:21:10;26.10;99.90
68385;DHT22;55336;43.062;25.626;2023-07-13T05:23:36;26.30;99.90
68385;DHT22;55336;43.062;25.626;2023-07-13T05:26:03;26.10;99.90
68385;DHT22;55336;43.062;25.626;2023-07-13T05:28:31;26.00;99.90
68385;DHT22;55336;43.062;25.626;2023-07-13T05:30:57;25.90;99.90
68385;DHT22;55336;43.062;25.626;2023-07-13T05:33:23;26.50;99.90
68385;DHT22;55336;43.062;25.626;2023-07-13T05:35:49;26.70;99.90
68385;DHT22;55336;43.062;25.626;2023-07-13T05:38:15;26.90;99.90
68385;DHT22;55336;43.062;25.626;2023-07-13T05:40:45;27.40;99.90
68385;DHT22;55336;43.062;25.626;2023-07-13T05:43:11;27.80;99.90
68385;DHT22;55336;43.062;25.626;2023-07-13T05:45:37;28.70;99.90
68385;DHT22;55336;43.062;25.626;2023-07-13T05:48:03;29.10;99.90
68385;DHT22;55336;43.062;25.626;2023-07-13T05:50:29;29.20;99.90
68385;DHT22;55336;43.062;25.626;2023-07-13T05:52:55;28.90;99.90
68385;DHT22;55336;43.062;25.626;2023-07-13T05:55:22;29.40;99.90
68385;DHT22;55336;43.062;25.626;2023-07-13T05:57:47;29.90;99.90
68385;DHT22;55336;43.062;25.626;2023-07-13T06:00:14;30.70;99.90
68385;DHT22;55336;43.062;25.626;2023-07-13T06:02:40;31.20;99.90
68385;DHT22;55336;43.062;25.626;2023-07-13T06:05:05;30.60;99.90
68385;DHT22;55336;43.062;25.626;2023-07-13T06:07:31;30.90;99.90
68385;DHT22;55336;43.062;25.626;2023-07-13T06:09:57;30.20;99.90
68385;DHT22;55336;43.062;25.626;2023-07-13T06:12:25;30.80;99.90
68385;DHT22;55336;43.062;25.626;2023-07-13T06:14:51;30.90;99.90
68385;DHT22;55336;43.062;25.626;2023-07-13T06:17:17;30.90;99.90
68385;DHT22;55336;43.062;25.626;2023-07-13T06:19:43;31.20;99.90
68385;DHT22;55336;43.062;25.626;2023-07-13T06:22:09;31.00;99.90
68385;DHT22;55336;43.062;25.626;2023-07-13T06:24:35;31.60;99.90
68385;DHT22;55336;43.062;25.626;2023-07-13T06:27:00;32.00;99.90
68385;DHT22;55336;43.062;25.626;2023-07-13T06:29:27;32.60;94.90
68385;DHT22;55336;43.062;25.626;2023-07-13T06:31:52;32.70;93.30
68385;DHT22;55336;43.062;25.626;2023-07-13T06:34:18;32.70;99.90
68385;DHT22;55336;43.062;25.626;2023-07-13T06:36:44;32.50;98.00
68385;DHT22;55336;43.062;25.626;2023-07-13T06:39:10;32.40;99.50
68385;DHT22;55336;43.062;25.626;2023-07-13T06:41:36;32.70;95.20
68385;DHT22;55336;43.062;25.626;2023-07-13T06:44:04;33.30;85.50
68385;DHT22;55336;43.062;25.626;2023-07-13T06:46:29;33.70;84.60
68385;DHT22;55336;43.062;25.626;2023-07-13T06:48:56;33.00;86.90
68385;DHT22;55336;43.062;25.626;2023-07-13T06:51:24;33.20;87.30
68385;DHT22;55336;43.062;25.626;2023-07-13T06:53:51;33.20;89.40
68385;DHT22;55336;43.062;25.626;2023-07-13T06:56:17;33.60;83.30
68385;DHT22;55336;43.062;25.626;2023-07-13T06:58:43;33.60;83.50
68385;DHT22;55336;43.062;25.626;2023-07-13T07:01:09;33.70;81.70
68385;DHT22;55336;43.062;25.626;2023-07-13T07:03:35;34.00;82.70
68385;DHT22;55336;43.062;25.626;2023-07-13T07:06:13;34.10;84.70
68385;DHT22;55336;43.062;25.626;2023-07-13T07:08:40;34.60;76.40
68385;DHT22;55336;43.062;25.626;2023-07-13T07:11:11;34.50;85.20
68385;DHT22;55336;43.062;25.626;2023-07-13T07:13:37;35.50;70.30
68385;DHT22;55336;43.062;25.626;2023-07-13T07:16:03;35.80;79.60
68385;DHT22;55336;43.062;25.626;2023-07-13T07:18:29;35.40;78.30
68385;DHT22;55336;43.062;25.626;2023-07-13T07:20:54;35.60;73.00
68385;DHT22;55336;43.062;25.626;2023-07-13T07:23:20;36.50;63.80
68385;DHT22;55336;43.062;25.626;2023-07-13T07:25:46;35.90;64.60
68385;DHT22;55336;43.062;25.626;2023-07-13T07:28:16;35.90;62.60
68385;DHT22;55336;43.062;25.626;2023-07-13T07:30:45;36.40;63.40
68385;DHT22;55336;43.062;25.626;2023-07-13T07:33:11;36.50;69.00
68385;DHT22;55336;43.062;25.626;2023-07-13T07:35:37;36.80;64.60
68385;DHT22;55336;43.062;25.626;2023-07-13T07:38:03;37.50;57.60
68385;DHT22;55336;43.062;25.626;2023-07-13T07:40:29;38.00;55.20
68385;DHT22;55336;43.062;25.626;2023-07-13T07:42:55;37.60;58.10
68385;DHT22;55336;43.062;25.626;2023-07-13T07:45:21;38.00;54.80
68385;DHT22;55336;43.062;25.626;2023-07-13T07:47:47;37.90;53.40
68385;DHT22;55336;43.062;25.626;2023-07-13T07:50:13;37.20;57.50
68385;DHT22;55336;43.062;25.626;2023-07-13T07:52:39;37.00;54.00
68385;DHT22;55336;43.062;25.626;2023-07-13T07:55:06;37.60;53.30
68385;DHT22;55336;43.062;25.626;2023-07-13T07:57:32;37.10;54.90
68385;DHT22;55336;43.062;25.626;2023-07-13T07:59:58;37.50;56.30
68385;DHT22;55336;43.062;25.626;2023-07-13T08:02:27;37.30;58.50
68385;DHT22;55336;43.062;25.626;2023-07-13T08:04:52;37.20;56.90
68385;DHT22;55336;43.062;25.626;2023-07-13T08:09:54;38.50;50.80
68385;DHT22;55336;43.062;25.626;2023-07-13T08:12:20;38.60;54.20
68385;DHT22;55336;43.062;25.626;2023-07-13T08:15:03;38.70;58.90
68385;DHT22;55336;43.062;25.626;2023-07-13T08:17:33;39.40;47.50
68385;DHT22;55336;43.062;25.626;2023-07-13T08:20:24;39.00;45.40
68385;DHT22;55336;43.062;25.626;2023-07-13T08:22:50;40.00;44.70
68385;DHT22;55336;43.062;25.626;2023-07-13T08:25:16;40.20;46.50
68385;DHT22;55336;43.062;25.626;2023-07-13T08:27:45;40.20;44.10
68385;DHT22;55336;43.062;25.626;2023-07-13T08:30:11;40.20;42.60
68385;DHT22;55336;43.062;25.626;2023-07-13T08:32:37;37.70;58.40
68385;DHT22;55336;43.062;25.626;2023-07-13T08:35:06;38.90;44.30
68385;DHT22;55336;43.062;25.626;2023-07-13T08:37:35;39.70;44.00
68385;DHT22;55336;43.062;25.626;2023-07-13T08:40:01;39.60;44.00
68385;DHT22;55336;43.062;25.626;2023-07-13T08:42:44;38.70;47.20
68385;DHT22;55336;43.062;25.626;2023-07-13T08:48:04;39.60;43.30
68385;DHT22;55336;43.062;25.626;2023-07-13T08:51:00;39.80;38.60
68385;DHT22;55336;43.062;25.626;2023-07-13T08:53:35;39.50;43.20
68385;DHT22;55336;43.062;25.626;2023-07-13T08:56:02;39.60;43.20
68385;DHT22;55336;43.062;25.626;2023-07-13T08:58:31;39.30;40.70
68385;DHT22;55336;43.062;25.626;2023-07-13T09:03:37;39.70;41.10
68385;DHT22;55336;43.062;25.626;2023-07-13T09:06:08;40.30;38.80
68385;DHT22;55336;43.062;25.626;2023-07-13T09:09:03;40.60;34.10
68385;DHT22;55336;43.062;25.626;2023-07-13T09:14:53;39.80;41.80
68385;DHT22;55336;43.062;25.626;2023-07-13T09:17:26;40.70;41.50
68385;DHT22;55336;43.062;25.626;2023-07-13T09:20:08;40.80;35.50
68385;DHT22;55336;43.062;25.626;2023-07-13T09:22:50;40.30;37.50
68385;DHT22;55336;43.062;25.626;2023-07-13T09:25:42;40.90;30.90
68385;DHT22;55336;43.062;25.626;2023-07-13T09:28:20;40.50;38.70
68385;DHT22;55336;43.062;25.626;2023-07-13T09:33:43;40.60;34.80
68385;DHT22;55336;43.062;25.626;2023-07-13T09:36:22;41.00;34.70
68385;DHT22;55336;43.062;25.626;2023-07-13T09:39:10;40.50;39.30
68385;DHT22;55336;43.062;25.626;2023-07-13T09:44:38;40.20;37.00
68385;DHT22;55336;43.062;25.626;2023-07-13T09:47:19;40.30;37.30
68385;DHT22;55336;43.062;25.626;2023-07-13T09:50:01;40.80;35.20
68385;DHT22;55336;43.062;25.626;2023-07-13T09:52:40;40.60;33.60
68385;DHT22;55336;43.062;25.626;2023-07-13T09:57:53;40.60;39.30
68385;DHT22;55336;43.062;25.626;2023-07-13T10:00:25;40.50;36.40
68385;DHT22;55336;43.062;25.626;2023-07-13T10:03:04;41.20;34.80
68385;DHT22;55336;43.062;25.626;2023-07-13T10:05:38;40.90;35.80
68385;DHT22;55336;43.062;25.626;2023-07-13T10:08:17;40.50;37.10
68385;DHT22;55336;43.062;25.626;2023-07-13T10:11:00;40.60;39.80
68385;DHT22;55336;43.062;25.626;2023-07-13T10:13:36;40.30;37.60
68385;DHT22;55336;43.062;25.626;2023-07-13T10:19:34;40.90;43.00
68385;DHT22;55336;43.062;25.626;2023-07-13T10:22:27;41.20;40.90
68385;DHT22;55336;43.062;25.626;2023-07-13T10:24:54;41.00;41.00
68385;DHT22;55336;43.062;25.626;2023-07-13T10:27:31;41.20;39.20
68385;DHT22;55336;43.062;25.626;2023-07-13T10:33:35;40.80;34.70
68385;DHT22;55336;43.062;25.626;2023-07-13T10:38:51;40.90;37.30
68385;DHT22;55336;43.062;25.626;2023-07-13T10:41:21;41.80;35.60
68385;DHT22;55336;43.062;25.626;2023-07-13T10:43:54;41.90;33.30
68385;DHT22;55336;43.062;25.626;2023-07-13T10:46:50;41.10;35.30
68385;DHT22;55336;43.062;25.626;2023-07-13T10:49:17;41.70;31.90
68385;DHT22;55336;43.062;25.626;2023-07-13T10:51:44;41.10;34.60
68385;DHT22;55336;43.062;25.626;2023-07-13T10:56:55;41.70;31.60
68385;DHT22;55336;43.062;25.626;2023-07-13T10:59:36;41.30;37.70
68385;DHT22;55336;43.062;25.626;2023-07-13T11:04:29;41.80;30.30
68385;DHT22;55336;43.062;25.626;2023-07-13T11:07:16;41.50;29.60
68385;DHT22;55336;43.062;25.626;2023-07-13T11:09:44;41.90;31.20
68385;DHT22;55336;43.062;25.626;2023-07-13T11:15:05;41.80;28.40
68385;DHT22;55336;43.062;25.626;2023-07-13T11:17:54;41.90;29.20
68385;DHT22;55336;43.062;25.626;2023-07-13T11:20:36;42.30;31.70
68385;DHT22;55336;43.062;25.626;2023-07-13T11:23:16;41.70;30.70
68385;DHT22;55336;43.062;25.626;2023-07-13T11:25:43;42.50;26.60
68385;DHT22;55336;43.062;25.626;2023-07-13T11:30:58;43.30;28.50
68385;DHT22;55336;43.062;25.626;2023-07-13T11:33:31;43.00;23.30
68385;DHT22;55336;43.062;25.626;2023-07-13T11:36:19;43.30;21.30
68385;DHT22;55336;43.062;25.626;2023-07-13T11:41:32;43.30;22.30
68385;DHT22;55336;43.062;25.626;2023-07-13T11:44:12;43.00;25.80
68385;DHT22;55336;43.062;25.626;2023-07-13T11:46:39;43.00;23.50
68385;DHT22;55336;43.062;25.626;2023-07-13T11:49:15;43.00;24.20
68385;DHT22;55336;43.062;25.626;2023-07-13T11:51:44;43.00;22.90
68385;DHT22;55336;43.062;25.626;2023-07-13T11:54:29;43.20;23.20
68385;DHT22;55336;43.062;25.626;2023-07-13T11:57:02;42.80;25.60
68385;DHT22;55336;43.062;25.626;2023-07-13T11:59:49;42.90;25.50
68385;DHT22;55336;43.062;25.626;2023-07-13T12:02:28;42.50;28.60
68385;DHT22;55336;43.062;25.626;2023-07-13T12:04:56;42.30;29.00
68385;DHT22;55336;43.062;25.626;2023-07-13T12:07:39;41.70;36.80
68385;DHT22;55336;43.062;25.626;2023-07-13T12:12:46;42.90;24.20
68385;DHT22;55336;43.062;25.626;2023-07-13T12:15:27;42.10;30.70
68385;DHT22;55336;43.062;25.626;2023-07-13T12:18:41;42.70;29.90
68385;DHT22;55336;43.062;25.626;2023-07-13T12:21:14;43.00;28.70
68385;DHT22;55336;43.062;25.626;2023-07-13T12:23:44;42.80;34.10
68385;DHT22;55336;43.062;25.626;2023-07-13T12:26:13;42.20;35.70
68385;DHT22;55336;43.062;25.626;2023-07-13T12:35:22;42.80;34.10
68385;DHT22;55336;43.062;25.626;2023-07-13T12:38:02;43.60;25.10
68385;DHT22;55336;43.062;25.626;2023-07-13T12:40:35;42.10;33.70
68385;DHT22;55336;43.062;25.626;2023-07-13T12:43:17;43.00;32.40
68385;DHT22;55336;43.062;25.626;2023-07-13T12:46:05;43.30;33.20
68385;DHT22;55336;43.062;25.626;2023-07-13T12:48:42;42.30;31.80
68385;DHT22;55336;43.062;25.626;2023-07-13T12:51:12;42.80;25.80
68385;DHT22;55336;43.062;25.626;2023-07-13T12:53:48;42.30;35.10
68385;DHT22;55336;43.062;25.626;2023-07-13T13:00:28;42.80;31.70
68385;DHT22;55336;43.062;25.626;2023-07-13T13:03:28;43.10;32.80
68385;DHT22;55336;43.062;25.626;2023-07-13T13:08:35;43.70;26.00
68385;DHT22;55336;43.062;25.626;2023-07-13T13:29:46;42.70;25.80
68385;DHT22;55336;43.062;25.626;2023-07-13T13:36:47;42.40;34.60
68385;DHT22;55336;43.062;25.626;2023-07-13T13:44:00;43.10;32.10
68385;DHT22;55336;43.062;25.626;2023-07-13T13:46:59;42.60;39.60
68385;DHT22;55336;43.062;25.626;2023-07-13T13:49:27;43.10;28.90
68385;DHT22;55336;43.062;25.626;2023-07-13T13:51:54;43.40;27.30
68385;DHT22;55336;43.062;25.626;2023-07-13T13:54:23;42.60;29.80
68385;DHT22;55336;43.062;25.626;2023-07-13T13:56:52;41.70;42.30
68385;DHT22;55336;43.062;25.626;2023-07-13T13:59:19;41.40;38.90
68385;DHT22;55336;43.062;25.626;2023-07-13T14:01:47;41.90;39.50
68385;DHT22;55336;43.062;25.626;2023-07-13T14:04:21;42.40;36.50
68385;DHT22;55336;43.062;25.626;2023-07-13T14:06:53;42.50;33.70
68385;DHT22;55336;43.062;25.626;2023-07-13T14:09:26;42.40;29.90
68385;DHT22;55336;43.062;25.626;2023-07-13T14:50:55;41.30;44.30
68385;DHT22;55336;43.062;25.626;2023-07-13T14:53:21;41.00;43.40
68385;DHT22;55336;43.062;25.626;2023-07-13T14:55:47;40.60;43.10
68385;DHT22;55336;43.062;25.626;2023-07-13T14:58:13;40.10;47.40
68385;DHT22;55336;43.062;25.626;2023-07-13T15:00:40;40.70;49.00
68385;DHT22;55336;43.062;25.626;2023-07-13T15:03:21;39.80;44.60
68385;DHT22;55336;43.062;25.626;2023-07-13T15:05:48;39.50;48.80
68385;DHT22;55336;43.062;25.626;2023-07-13T15:08:15;39.40;49.30
68385;DHT22;55336;43.062;25.626;2023-07-13T15:10:41;39.30;50.60
68385;DHT22;55336;43.062;25.626;2023-07-13T15:13:15;39.80;48.40
68385;DHT22;55336;43.062;25.626;2023-07-13T15:15:43;38.90;48.50
68385;DHT22;55336;43.062;25.626;2023-07-13T15:18:11;38.90;50.20
68385;DHT22;55336;43.062;25.626;2023-07-13T15:20:38;38.70;51.70
68385;DHT22;55336;43.062;25.626;2023-07-13T15:23:05;38.70;51.10
68385;DHT22;55336;43.062;25.626;2023-07-13T15:25:33;38.60;51.50
68385;DHT22;55336;43.062;25.626;2023-07-13T15:28:00;38.40;52.10
68385;DHT22;55336;43.062;25.626;2023-07-13T15:30:29;37.90;51.00
68385;DHT22;55336;43.062;25.626;2023-07-13T15:33:01;38.20;53.00
68385;DHT22;55336;43.062;25.626;2023-07-13T15:35:33;38.00;52.30
68385;DHT22;55336;43.062;25.626;2023-07-13T15:37:59;37.90;52.30
68385;DHT22;55336;43.062;25.626;2023-07-13T15:40:25;37.80;53.70
68385;DHT22;55336;43.062;25.626;2023-07-13T15:42:52;37.50;54.30
68385;DHT22;55336;43.062;25.626;2023-07-13T15:45:20;37.60;54.70
68385;DHT22;55336;43.062;25.626;2023-07-13T15:47:47;37.60;54.10
68385;DHT22;55336;43.062;25.626;2023-07-13T15:50:19;36.30;54.10
68385;DHT22;55336;43.062;25.626;2023-07-13T15:52:48;36.50;54.80
68385;DHT22;55336;43.062;25.626;2023-07-13T15:55:15;35.80;58.40
68385;DHT22;55336;43.062;25.626;2023-07-13T15:57:47;36.30;59.00
68385;DHT22;55336;43.062;25.626;2023-07-13T16:00:23;36.10;58.50
68385;DHT22;55336;43.062;25.626;2023-07-13T16:02:50;36.10;59.70
68385;DHT22;55336;43.062;25.626;2023-07-13T16:05:18;36.00;59.40
68385;DHT22;55336;43.062;25.626;2023-07-13T16:07:45;35.80;59.40
68385;DHT22;55336;43.062;25.626;2023-07-13T16:10:19;35.60;60.60
68385;DHT22;55336;43.062;25.626;2023-07-13T16:12:46;35.10;63.40
68385;DHT22;55336;43.062;25.626;2023-07-13T16:15:15;35.00;62.00
68385;DHT22;55336;43.062;25.626;2023-07-13T16:17:42;34.90;62.50
68385;DHT22;55336;43.062;25.626;2023-07-13T16:20:09;34.80;62.40
68385;DHT22;55336;43.062;25.626;2023-07-13T16:22:40;34.70;62.30
68385;DHT22;55336;43.062;25.626;2023-07-13T16:25:20;34.20;64.70
68385;DHT22;55336;43.062;25.626;2023-07-13T16:27:47;34.00;65.80
68385;DHT22;55336;43.062;25.626;2023-07-13T16:30:19;33.60;66.90
68385;DHT22;55336;43.062;25.626;2023-07-13T16:32:50;33.20;68.80
68385;DHT22;55336;43.062;25.626;2023-07-13T16:35:19;33.00;71.80
68385;DHT22;55336;43.062;25.626;2023-07-13T16:37:45;32.60;73.90
68385;DHT22;55336;43.062;25.626;2023-07-13T16:40:21;32.40;75.20
68385;DHT22;55336;43.062;25.626;2023-07-13T16:42:51;32.30;77.40
68385;DHT22;55336;43.062;25.626;2023-07-13T16:45:19;32.00;80.70
68385;DHT22;55336;43.062;25.626;2023-07-13T16:47:47;31.80;86.60
68385;DHT22;55336;43.062;25.626;2023-07-13T16:50:19;31.90;95.80
68385;DHT22;55336;43.062;25.626;2023-07-13T16:52:45;31.40;99.90
68385;DHT22;55336;43.062;25.626;2023-07-13T16:55:13;31.00;99.90
68385;DHT22;55336;43.062;25.626;2023-07-13T16:57:44;30.90;99.90
68385;DHT22;55336;43.062;25.626;2023-07-13T17:02:44;30.80;99.90
68385;DHT22;55336;43.062;25.626;2023-07-13T17:05:11;30.90;99.90
68385;DHT22;55336;43.062;25.626;2023-07-13T17:07:40;30.80;99.90
68385;DHT22;55336;43.062;25.626;2023-07-13T17:10:18;30.70;99.90
68385;DHT22;55336;43.062;25.626;2023-07-13T17:12:45;30.50;99.90
68385;DHT22;55336;43.062;25.626;2023-07-13T17:15:12;30.50;99.90
68385;DHT22;55336;43.062;25.626;2023-07-13T17:17:39;30.40;99.90
68385;DHT22;55336;43.062;25.626;2023-07-13T17:20:25;30.20;99.90
68385;DHT22;55336;43.062;25.626;2023-07-13T17:22:53;29.90;99.90
68385;DHT22;55336;43.062;25.626;2023-07-13T17:25:20;29.70;99.90
68385;DHT22;55336;43.062;25.626;2023-07-13T17:27:47;29.40;99.90
68385;DHT22;55336;43.062;25.626;2023-07-13T17:30:17;29.40;99.90
68385;DHT22;55336;43.062;25.626;2023-07-13T17:32:46;29.30;99.90
68385;DHT22;55336;43.062;25.626;2023-07-13T17:35:19;29.00;99.90
68385;DHT22;55336;43.062;25.626;2023-07-13T17:37:47;28.90;99.90